Time;durP1;ratioP1;P1;durP2;ratioP2;P2;SDS_P1;SDS_P2;PMS_P1;PMS_P2;Temp;Humidity;BMP_temperature;BMP_pressure;BME280_temperature;BME280_humidity;BME280_pressure;Samples;Min_cycle;Max_cycle;Signal;HPM_P1;HPM_P2
2021/08/05 00:02:18;;;;;;;5.50;2.20;;;;;;;;;;4997033;28;20185;-51
2021/08/05 00:04:44;;;;;;;4.78;1.98;;;;;;;;;;4984372;28;20050;-50
2021/08/05 00:07:13;;;;;;;4.88;2.17;;;;;;;;;;4991240;28;20070;-48
2021/08/05 00:09:43;;;;;;;;;;;;;;;;;;5000435;28;20038;-50
2021/08/05 00:12:11;;;;;;;3.33;1.80;;;;;;;;;;4979660;28;19921;-50
2021/08/05 00:14:38;;;;;;;4.63;2.15;;;;;;;;;;4976266;28;20095;-50
2021/08/05 00:17:04;;;;;;;6.78;2.30;;;;;;;;;;4988289;28;20050;-51
2021/08/05 00:19:31;;;;;;;4.32;2.08;;;;;;;;;;5004903;28;20043;-51
2021/08/05 00:21:57;;;;;;;4.60;2.20;;;;;;;;;;5016164;28;20091;-53
2021/08/05 00:24:24;;;;;;;4.85;2.05;;;;;;;;;;5004901;28;20038;-52
2021/08/05 00:26:50;;;;;;;5.22;2.20;;;;;;;;;;4998236;28;20034;-55
2021/08/05 00:29:18;;;;;;;3.97;2.03;;;;;;;;;;5022236;28;20045;-54
2021/08/05 00:31:45;;;;;;;8.02;2.15;;;;;;;;;;5004165;28;20052;-53
2021/08/05 00:34:11;;;;;;;4.18;2.35;;;;;;;;;;4983050;28;20133;-50
2021/08/05 00:36:38;;;;;;;3.58;2.10;;;;;;;;;;4983668;28;20053;-53
2021/08/05 00:39:04;;;;;;;6.53;2.08;;;;;;;;;;4980779;28;20129;-50
2021/08/05 00:41:31;;;;;;;3.15;1.75;;;;;;;;;;5000436;28;20075;-53
2021/08/05 00:44:00;;;;;;;3.80;2.10;;;;;;;;;;4981055;28;20115;-51
2021/08/05 00:46:28;;;;;;;4.80;2.35;;;;;;;;;;4985596;28;20046;-52
2021/08/05 00:48:54;;;;;;;6.13;2.40;;;;;;;;;;4998131;28;20057;-53
2021/08/05 00:51:21;;;;;;;3.60;2.17;;;;;;;;;;4984005;28;20280;-50
2021/08/05 00:53:49;;;;;;;5.97;2.20;;;;;;;;;;4990410;28;20124;-50
2021/08/05 00:56:15;;;;;;;;;;;;;;;;;;5011489;28;20076;-52
2021/08/05 00:58:43;;;;;;;5.45;2.20;;;;;;;;;;4994474;28;19926;-52
2021/08/05 01:01:11;;;;;;;8.38;2.40;;;;;;;;;;4981380;28;20038;-52
2021/08/05 01:03:41;;;;;;;4.97;2.30;;;;;;;;;;4984224;28;20476;-51
2021/08/05 01:06:10;;;;;;;5.45;2.38;;;;;;;;;;5002107;28;20038;-53
2021/08/05 01:08:39;;;;;;;4.82;2.40;;;;;;;;;;4997211;28;20156;-53
2021/08/05 01:11:10;;;;;;;5.38;2.42;;;;;;;;;;5005567;28;20046;-52
2021/08/05 01:13:38;;;;;;;4.10;2.40;;;;;;;;;;4981015;28;20057;-53
2021/08/05 01:16:07;;;;;;;4.80;2.78;;;;;;;;;;4982845;28;20043;-51
2021/08/05 01:18:35;;;;;;;6.45;2.63;;;;;;;;;;4984154;28;20047;-54
2021/08/05 01:21:02;;;;;;;;;;;;;;;;;;4997471;28;20124;-55
2021/08/05 01:23:33;;;;;;;5.93;2.65;;;;;;;;;;5017999;28;19926;-54
2021/08/05 01:26:06;;;;;;;5.30;2.60;;;;;;;;;;4998069;28;20053;-56
2021/08/05 01:28:34;;;;;;;4.65;2.40;;;;;;;;;;5004894;28;20074;-53
2021/08/05 01:31:01;;;;;;;5.13;2.47;;;;;;;;;;4973020;28;20329;-52
2021/08/05 01:33:29;;;;;;;5.93;2.58;;;;;;;;;;4962936;28;20055;-53
2021/08/05 01:35:56;;;;;;;3.95;2.13;;;;;;;;;;4973835;28;20101;-52
2021/08/05 01:38:22;;;;;;;3.28;2.03;;;;;;;;;;4983504;28;20046;-52
2021/08/05 01:40:49;;;;;;;4.75;2.70;;;;;;;;;;4980968;28;20034;-52
2021/08/05 01:43:16;;;;;;;4.80;2.63;;;;;;;;;;4987836;28;20035;-50
2021/08/05 01:45:45;;;;;;;8.52;2.50;;;;;;;;;;4967703;28;20042;-51
2021/08/05 01:48:12;;;;;;;4.97;2.40;;;;;;;;;;5000236;28;20117;-51
2021/08/05 01:50:39;;;;;;;5.72;2.90;;;;;;;;;;5001558;28;20394;-48
2021/08/05 01:53:06;;;;;;;7.40;2.67;;;;;;;;;;5003803;28;20081;-49
2021/08/05 01:55:34;;;;;;;5.03;2.60;;;;;;;;;;5016219;28;20058;-51
2021/08/05 01:58:01;;;;;;;6.53;2.70;;;;;;;;;;5003121;28;20038;-50
2021/08/05 02:00:27;;;;;;;11.18;2.35;;;;;;;;;;5011834;28;20056;-55
2021/08/05 02:02:55;;;;;;;4.90;2.60;;;;;;;;;;4998183;28;20045;-52
2021/08/05 02:05:24;;;;;;;4.88;2.35;;;;;;;;;;4984409;28;20050;-53
2021/08/05 02:08:04;;;;;;;5.78;2.67;;;;;;;;;;4980558;28;20051;-49
2021/08/05 02:10:33;;;;;;;4.47;2.45;;;;;;;;;;4982814;28;20046;-50
2021/08/05 02:13:02;;;;;;;5.20;2.67;;;;;;;;;;4980689;28;20053;-53
2021/08/05 02:15:28;;;;;;;;;;;;;;;;;;4988540;28;20042;-52
2021/08/05 02:17:56;;;;;;;4.63;2.42;;;;;;;;;;4979112;28;19937;-51
2021/08/05 02:20:23;;;;;;;5.25;2.67;;;;;;;;;;4982599;28;20042;-51
2021/08/05 02:22:51;;;;;;;6.45;3.00;;;;;;;;;;4992676;28;20034;-51
2021/08/05 02:25:18;;;;;;;8.82;3.13;;;;;;;;;;5018791;28;20058;-48
2021/08/05 02:27:46;;;;;;;5.60;2.72;;;;;;;;;;5000168;28;20046;-50
2021/08/05 02:30:13;;;;;;;6.85;3.10;;;;;;;;;;5003330;28;20165;-48
2021/08/05 02:32:39;;;;;;;5.10;2.72;;;;;;;;;;4999148;28;20065;-51
2021/08/05 02:35:09;;;;;;;5.68;3.33;;;;;;;;;;5002647;28;20049;-52
2021/08/05 02:37:36;;;;;;;6.47;3.33;;;;;;;;;;4998700;28;20096;-52
2021/08/05 02:40:04;;;;;;;6.70;3.55;;;;;;;;;;5002799;28;20050;-52
2021/08/05 02:42:32;;;;;;;9.73;3.63;;;;;;;;;;4979518;28;20042;-49
2021/08/05 02:44:59;;;;;;;7.32;3.70;;;;;;;;;;4982545;28;20043;-51
2021/08/05 02:47:25;;;;;;;6.68;3.90;;;;;;;;;;4985827;28;20145;-48
2021/08/05 02:49:53;;;;;;;7.22;3.58;;;;;;;;;;4989018;28;20050;-51
2021/08/05 02:52:21;;;;;;;6.85;4.00;;;;;;;;;;5003070;28;20043;-52
2021/08/05 02:54:48;;;;;;;11.00;4.00;;;;;;;;;;5020755;28;20097;-53
2021/08/05 02:57:15;;;;;;;7.97;4.18;;;;;;;;;;5007270;28;20054;-51
2021/08/05 02:59:42;;;;;;;8.55;4.30;;;;;;;;;;4987337;28;20060;-52
2021/08/05 03:02:09;;;;;;;8.40;4.05;;;;;;;;;;4987388;28;20043;-53
2021/08/05 03:04:36;;;;;;;7.55;4.43;;;;;;;;;;4985160;28;20053;-49
2021/08/05 03:07:02;;;;;;;8.45;4.38;;;;;;;;;;4987730;28;20050;-53
2021/08/05 03:09:30;;;;;;;8.68;4.50;;;;;;;;;;4984244;28;20109;-51
2021/08/05 03:11:57;;;;;;;7.40;4.00;;;;;;;;;;4989081;28;20113;-51
2021/08/05 03:14:23;;;;;;;9.02;3.78;;;;;;;;;;4983628;28;20296;-52
2021/08/05 03:16:50;;;;;;;7.53;4.20;;;;;;;;;;4988336;28;20066;-53
2021/08/05 03:19:18;;;;;;;6.50;3.83;;;;;;;;;;5001631;28;20071;-51
2021/08/05 03:21:44;;;;;;;7.90;4.05;;;;;;;;;;4987603;28;20083;-52
2021/08/05 03:24:11;;;;;;;7.38;4.03;;;;;;;;;;4983315;28;20150;-50
2021/08/05 03:26:38;;;;;;;8.02;4.20;;;;;;;;;;5025477;28;20034;-56
2021/08/05 03:29:06;;;;;;;8.07;4.00;;;;;;;;;;5004477;28;20050;-54
2021/08/05 03:31:32;;;;;;;6.72;4.20;;;;;;;;;;4988404;28;20066;-54
2021/08/05 03:33:59;;;;;;;6.32;3.28;;;;;;;;;;4985448;28;20050;-55
2021/08/05 03:36:25;;;;;;;9.30;4.25;;;;;;;;;;4984795;28;20039;-50
2021/08/05 03:38:53;;;;;;;8.20;4.07;;;;;;;;;;5005896;28;20046;-53
2021/08/05 03:41:19;;;;;;;6.75;3.80;;;;;;;;;;4988938;28;20058;-55
2021/08/05 03:43:48;;;;;;;7.45;4.10;;;;;;;;;;4981932;28;20060;-55
2021/08/05 03:46:14;;;;;;;7.93;4.00;;;;;;;;;;4975323;28;20043;-52
2021/08/05 03:48:40;;;;;;;7.82;3.97;;;;;;;;;;4970873;28;20050;-51
2021/08/05 03:51:07;;;;;;;5.70;3.47;;;;;;;;;;4990137;28;20054;-51
2021/08/05 03:53:34;;;;;;;7.60;3.80;;;;;;;;;;5006174;28;20065;-51
2021/08/05 03:56:00;;;;;;;7.50;3.97;;;;;;;;;;5003769;28;20042;-49
2021/08/05 03:58:27;;;;;;;7.07;3.92;;;;;;;;;;5004400;28;20096;-49
2021/08/05 04:00:54;;;;;;;8.10;3.92;;;;;;;;;;4991671;28;20046;-48
2021/08/05 04:03:24;;;;;;;7.30;4.10;;;;;;;;;;4987356;28;20050;-50
2021/08/05 04:05:50;;;;;;;6.78;3.90;;;;;;;;;;4981188;28;20047;-52
2021/08/05 04:08:16;;;;;;;7.47;4.03;;;;;;;;;;4985983;28;20047;-53
2021/08/05 04:10:43;;;;;;;7.15;3.80;;;;;;;;;;4983011;28;20062;-50
2021/08/05 04:13:09;;;;;;;8.57;4.05;;;;;;;;;;4985651;28;20046;-51
2021/08/05 04:15:36;;;;;;;8.50;4.28;;;;;;;;;;4982843;28;20062;-53
2021/08/05 04:18:04;;;;;;;7.78;3.97;;;;;;;;;;4997976;28;20039;-51
2021/08/05 04:20:30;;;;;;;8.07;4.40;;;;;;;;;;4984946;28;20046;-55
2021/08/05 04:22:57;;;;;;;10.18;3.88;;;;;;;;;;4998014;28;20053;-50
2021/08/05 04:25:24;;;;;;;6.90;3.95;;;;;;;;;;5004468;28;20049;-52
2021/08/05 04:27:50;;;;;;;6.97;3.85;;;;;;;;;;4985318;28;20042;-51
2021/08/05 04:30:17;;;;;;;9.13;4.13;;;;;;;;;;4983340;28;20045;-51
2021/08/05 04:32:45;;;;;;;6.45;3.50;;;;;;;;;;5008255;28;20109;-53
2021/08/05 04:35:13;;;;;;;7.95;3.92;;;;;;;;;;5005208;28;20054;-50
2021/08/05 04:37:50;;;;;;;6.95;3.42;;;;;;;;;;4999178;28;20072;-51
2021/08/05 04:40:16;;;;;;;7.63;3.70;;;;;;;;;;5001611;28;20046;-53
2021/08/05 04:42:45;;;;;;;8.38;3.97;;;;;;;;;;4987672;28;20046;-52
2021/08/05 04:45:12;;;;;;;12.18;3.53;;;;;;;;;;5019113;28;20076;-51
2021/08/05 04:47:55;;;;;;;6.57;3.55;;;;;;;;;;4992730;28;20051;-52
2021/08/05 04:50:23;;;;;;;6.25;3.97;;;;;;;;;;4984550;28;20043;-52
2021/08/05 04:52:50;;;;;;;6.68;3.67;;;;;;;;;;4979586;28;20185;-52
2021/08/05 04:55:17;;;;;;;7.85;4.28;;;;;;;;;;4983882;28;20042;-53
2021/08/05 04:57:47;;;;;;;9.73;4.43;;;;;;;;;;4980644;28;20030;-51
2021/08/05 05:00:14;;;;;;;8.85;4.72;;;;;;;;;;4985015;28;20046;-50
2021/08/05 05:02:40;;;;;;;7.50;4.53;;;;;;;;;;4982633;28;20129;-50
2021/08/05 05:05:07;;;;;;;8.13;4.22;;;;;;;;;;4984729;28;20046;-54
2021/08/05 05:07:36;;;;;;;9.70;4.50;;;;;;;;;;4980875;28;20043;-49
2021/08/05 05:10:03;;;;;;;7.60;4.43;;;;;;;;;;4976678;28;20046;-52
2021/08/05 05:12:29;;;;;;;8.82;4.43;;;;;;;;;;4967032;28;20104;-48
2021/08/05 05:14:57;;;;;;;8.13;4.93;;;;;;;;;;4972189;28;20136;-53
2021/08/05 05:17:24;;;;;;;10.75;4.63;;;;;;;;;;4982480;28;20046;-49
2021/08/05 05:19:52;;;;;;;8.50;4.72;;;;;;;;;;4978934;28;20159;-50
2021/08/05 05:22:18;;;;;;;8.52;4.72;;;;;;;;;;4972221;28;20047;-50
2021/08/05 05:24:47;;;;;;;8.77;4.50;;;;;;;;;;4994923;28;20054;-50
2021/08/05 05:27:16;;;;;;;9.98;4.65;;;;;;;;;;4979646;28;20065;-49
2021/08/05 05:29:42;;;;;;;9.02;4.55;;;;;;;;;;4976109;28;20047;-53
2021/08/05 05:32:09;;;;;;;10.30;4.60;;;;;;;;;;4980291;28;20062;-52
2021/08/05 05:34:35;;;;;;;9.18;4.78;;;;;;;;;;4975546;28;20154;-53
2021/08/05 05:37:02;;;;;;;11.90;4.80;;;;;;;;;;4982698;28;20042;-48
2021/08/05 05:39:29;;;;;;;15.05;4.90;;;;;;;;;;4988259;28;20038;-49
2021/08/05 05:41:57;;;;;;;11.32;5.50;;;;;;;;;;4978367;28;20039;-49
2021/08/05 05:44:23;;;;;;;12.47;5.03;;;;;;;;;;4976938;28;20047;-52
2021/08/05 05:46:50;;;;;;;13.20;7.28;;;;;;;;;;4981765;28;20277;-50
2021/08/05 05:49:16;;;;;;;12.07;6.70;;;;;;;;;;4980215;28;20103;-52
2021/08/05 05:51:43;;;;;;;12.25;5.72;;;;;;;;;;4981475;28;20060;-50
2021/08/05 05:54:10;;;;;;;10.38;5.35;;;;;;;;;;4982076;28;20067;-50
2021/08/05 05:56:36;;;;;;;8.27;5.05;;;;;;;;;;4960908;28;20078;-53
2021/08/05 05:59:04;;;;;;;11.73;5.80;;;;;;;;;;4983407;28;20058;-50
2021/08/05 06:01:31;;;;;;;11.80;5.93;;;;;;;;;;4973179;28;20050;-50
2021/08/05 06:03:57;;;;;;;9.77;5.63;;;;;;;;;;4982191;28;20298;-50
2021/08/05 06:06:24;;;;;;;11.00;5.00;;;;;;;;;;4976239;28;20119;-52
2021/08/05 06:08:51;;;;;;;10.18;5.75;;;;;;;;;;4979697;28;20066;-50
2021/08/05 06:11:18;;;;;;;9.68;5.65;;;;;;;;;;5004165;28;20058;-49
2021/08/05 06:13:44;;;;;;;8.75;5.35;;;;;;;;;;5000239;28;20038;-51
2021/08/05 06:16:12;;;;;;;10.40;5.82;;;;;;;;;;5007579;28;20034;-53
2021/08/05 06:18:39;;;;;;;11.25;5.40;;;;;;;;;;4999163;28;20038;-51
2021/08/05 06:21:05;;;;;;;12.77;4.95;;;;;;;;;;4980211;28;20121;-48
2021/08/05 06:23:33;;;;;;;11.20;6.35;;;;;;;;;;4983066;28;20050;-52
2021/08/05 06:25:59;;;;;;;9.70;5.68;;;;;;;;;;4978698;28;20109;-53
2021/08/05 06:28:26;;;;;;;14.05;6.63;;;;;;;;;;4983144;28;20042;-51
2021/08/05 06:30:52;;;;;;;11.02;6.68;;;;;;;;;;4981506;28;20046;-53
2021/08/05 06:33:20;;;;;;;10.43;6.10;;;;;;;;;;4981105;28;20109;-49
2021/08/05 06:35:46;;;;;;;12.02;6.47;;;;;;;;;;4998940;28;20039;-54
2021/08/05 06:38:13;;;;;;;10.20;5.95;;;;;;;;;;4995557;28;20038;-50
2021/08/05 06:40:42;;;;;;;11.63;6.70;;;;;;;;;;4997796;28;20124;-50
2021/08/05 06:43:08;;;;;;;;;;;;;;;;;;4994192;28;20046;-50
2021/08/05 06:45:34;;;;;;;10.45;5.78;;;;;;;;;;5016965;28;19926;-50
2021/08/05 06:48:01;;;;;;;11.85;6.75;;;;;;;;;;4999445;28;20155;-52
2021/08/05 06:50:29;;;;;;;12.25;6.70;;;;;;;;;;5001367;28;20034;-51
2021/08/05 06:52:56;;;;;;;12.38;6.82;;;;;;;;;;4987984;28;20047;-49
2021/08/05 06:55:22;;;;;;;36.42;7.65;;;;;;;;;;4983472;28;20042;-49
2021/08/05 06:57:49;;;;;;;11.32;5.80;;;;;;;;;;4977696;28;20039;-51
2021/08/05 07:00:16;;;;;;;13.07;6.57;;;;;;;;;;4984078;28;20035;-50
2021/08/05 07:02:43;;;;;;;12.05;6.93;;;;;;;;;;4984466;28;20140;-50
2021/08/05 07:05:11;;;;;;;13.23;7.57;;;;;;;;;;5001950;28;20046;-49
2021/08/05 07:07:39;;;;;;;13.35;7.22;;;;;;;;;;4996296;28;20053;-51
2021/08/05 07:10:09;;;;;;;16.05;7.68;;;;;;;;;;4981139;28;20066;-48
2021/08/05 07:12:35;;;;;;;14.88;7.45;;;;;;;;;;4980886;28;20039;-48
2021/08/05 07:15:11;;;;;;;15.00;7.80;;;;;;;;;;5018908;28;20030;-48
2021/08/05 07:17:40;;;;;;;15.23;7.55;;;;;;;;;;5002462;28;20042;-53
2021/08/05 07:20:07;;;;;;;14.23;7.97;;;;;;;;;;4996236;28;20041;-52
2021/08/05 07:22:34;;;;;;;14.50;8.10;;;;;;;;;;4983418;28;20170;-50
2021/08/05 07:25:02;;;;;;;11.65;7.75;;;;;;;;;;4994958;28;20057;-50
2021/08/05 07:27:28;;;;;;;16.33;8.98;;;;;;;;;;5000532;28;20042;-50
2021/08/05 07:29:55;;;;;;;16.15;8.25;;;;;;;;;;4984486;28;20046;-49
2021/08/05 07:32:21;;;;;;;14.85;8.07;;;;;;;;;;4982480;28;20058;-49
2021/08/05 07:34:49;;;;;;;12.57;7.78;;;;;;;;;;4993933;28;20038;-51
2021/08/05 07:37:16;;;;;;;12.15;7.40;;;;;;;;;;5005634;28;20022;-51
2021/08/05 07:39:42;;;;;;;14.32;8.65;;;;;;;;;;5005812;28;20124;-51
2021/08/05 07:42:10;;;;;;;15.38;9.00;;;;;;;;;;4983914;28;20049;-52
2021/08/05 07:44:38;;;;;;;13.40;8.50;;;;;;;;;;4985955;28;20053;-51
2021/08/05 07:47:04;;;;;;;16.20;9.13;;;;;;;;;;4984653;28;20055;-51
2021/08/05 07:49:30;;;;;;;14.43;8.00;;;;;;;;;;4981140;28;20057;-54
2021/08/05 07:51:59;;;;;;;20.88;8.35;;;;;;;;;;4983487;28;20054;-55
2021/08/05 07:54:25;;;;;;;13.13;7.30;;;;;;;;;;4981964;28;20156;-52
2021/08/05 07:56:52;;;;;;;22.58;8.63;;;;;;;;;;5002976;28;20046;-52
2021/08/05 07:59:20;;;;;;;15.98;8.05;;;;;;;;;;5019452;28;20046;-53
2021/08/05 08:01:46;;;;;;;16.93;8.70;;;;;;;;;;4982827;28;20051;-50
2021/08/05 08:04:13;;;;;;;15.15;8.63;;;;;;;;;;4982977;28;20284;-55
2021/08/05 08:06:41;;;;;;;18.63;9.00;;;;;;;;;;4980396;28;20046;-54
2021/08/05 08:09:07;;;;;;;14.67;8.37;;;;;;;;;;4983458;28;20057;-52
2021/08/05 08:11:34;;;;;;;16.10;9.00;;;;;;;;;;4981815;28;20374;-55
2021/08/05 08:14:01;;;;;;;19.08;9.07;;;;;;;;;;5001169;28;20123;-51
2021/08/05 08:16:29;;;;;;;14.70;8.32;;;;;;;;;;4980894;28;20046;-51
2021/08/05 08:18:56;;;;;;;13.52;8.68;;;;;;;;;;4984886;28;20141;-53
2021/08/05 08:21:22;;;;;;;18.15;9.07;;;;;;;;;;4983404;28;20037;-52
2021/08/05 08:23:49;;;;;;;13.73;8.90;;;;;;;;;;5018992;28;20120;-53
2021/08/05 08:26:16;;;;;;;18.60;9.43;;;;;;;;;;4991949;28;20038;-54
2021/08/05 08:28:42;;;;;;;16.05;9.02;;;;;;;;;;4985178;28;20042;-53
2021/08/05 08:31:09;;;;;;;17.25;9.02;;;;;;;;;;4982574;28;20046;-51
2021/08/05 08:33:37;;;;;;;16.48;9.48;;;;;;;;;;4983006;28;20042;-53
2021/08/05 08:36:03;;;;;;;27.85;8.68;;;;;;;;;;4983536;28;20038;-52
2021/08/05 08:38:30;;;;;;;16.63;8.85;;;;;;;;;;5004103;28;20046;-52
2021/08/05 08:40:57;;;;;;;15.88;8.65;;;;;;;;;;4993791;28;20053;-56
2021/08/05 08:43:24;;;;;;;14.45;7.88;;;;;;;;;;4982619;28;20132;-50
2021/08/05 08:45:52;;;;;;;17.52;9.10;;;;;;;;;;4985164;28;20046;-48
2021/08/05 08:48:18;;;;;;;15.32;9.13;;;;;;;;;;4997499;28;20058;-51
2021/08/05 08:50:46;;;;;;;14.95;8.48;;;;;;;;;;5005649;28;20058;-48
2021/08/05 08:53:15;;;;;;;16.27;7.40;;;;;;;;;;4984839;28;20109;-54
2021/08/05 08:55:41;;;;;;;;;;;;;;;;;;4986028;28;20116;-51
2021/08/05 08:58:08;;;;;;;12.60;6.40;;;;;;;;;;4995360;28;20004;-53
2021/08/05 09:00:36;;;;;;;11.85;6.57;;;;;;;;;;4983047;28;20042;-50
2021/08/05 09:03:04;;;;;;;20.05;6.70;;;;;;;;;;4991237;28;20096;-50
2021/08/05 09:05:34;;;;;;;11.35;6.78;;;;;;;;;;5019595;28;20038;-51
2021/08/05 09:08:03;;;;;;;15.57;7.55;;;;;;;;;;4991488;28;20046;-52
2021/08/05 09:10:30;;;;;;;10.90;6.63;;;;;;;;;;4983561;28;20075;-56
2021/08/05 09:12:56;;;;;;;16.75;6.75;;;;;;;;;;4979483;28;20059;-52
2021/08/05 09:15:36;;;;;;;10.40;6.30;;;;;;;;;;4983554;28;20075;-50
2021/08/05 09:18:03;;;;;;;11.77;7.05;;;;;;;;;;4984767;28;20038;-55
2021/08/05 09:20:30;;;;;;;11.35;5.60;;;;;;;;;;5004193;28;20057;-51
2021/08/05 09:22:56;;;;;;;11.43;5.20;;;;;;;;;;4997134;28;20184;-51
2021/08/05 09:25:32;;;;;;;11.82;5.40;;;;;;;;;;4983138;28;20128;-51
2021/08/05 09:28:00;;;;;;;10.25;4.78;;;;;;;;;;4996936;28;20049;-53
2021/08/05 09:30:28;;;;;;;11.27;6.13;;;;;;;;;;4984284;28;20062;-52
2021/08/05 09:32:54;;;;;;;11.15;6.03;;;;;;;;;;4983523;28;20074;-52
2021/08/05 09:35:28;;;;;;;11.63;5.63;;;;;;;;;;4996923;28;20050;-55
2021/08/05 09:37:54;;;;;;;14.43;6.50;;;;;;;;;;4975504;28;20049;-53
2021/08/05 09:40:21;;;;;;;13.73;6.78;;;;;;;;;;4979374;28;20173;-56
2021/08/05 09:42:55;;;;;;;10.43;6.20;;;;;;;;;;4983451;28;20054;-52
2021/08/05 09:45:34;;;;;;;15.68;7.88;;;;;;;;;;4996346;28;20035;-54
2021/08/05 09:48:01;;;;;;;13.07;7.57;;;;;;;;;;4978129;28;20067;-57
2021/08/05 09:50:28;;;;;;;14.38;8.93;;;;;;;;;;4984223;28;20034;-52
2021/08/05 09:53:06;;;;;;;14.80;8.40;;;;;;;;;;5003470;28;20099;-56
2021/08/05 09:55:35;;;;;;;15.25;7.22;;;;;;;;;;4995624;28;20065;-54
2021/08/05 09:58:02;;;;;;;17.23;9.50;;;;;;;;;;5003112;28;20034;-57
2021/08/05 10:00:40;;;;;;;14.05;8.23;;;;;;;;;;4987966;28;20047;-52
2021/08/05 10:03:08;;;;;;;13.85;8.48;;;;;;;;;;4981830;28;20042;-56
2021/08/05 10:05:35;;;;;;;10.65;6.88;;;;;;;;;;4980270;28;20054;-53
2021/08/05 10:08:02;;;;;;;15.57;8.90;;;;;;;;;;4983483;28;20043;-55
2021/08/05 10:10:29;;;;;;;14.23;7.97;;;;;;;;;;4989329;28;20074;-49
2021/08/05 10:12:57;;;;;;;14.55;8.93;;;;;;;;;;5004212;28;20038;-51
2021/08/05 10:15:23;;;;;;;20.27;9.40;;;;;;;;;;4991196;28;20053;-55
2021/08/05 10:17:51;;;;;;;20.00;11.65;;;;;;;;;;4983218;28;20053;-49
2021/08/05 10:20:19;;;;;;;17.90;11.48;;;;;;;;;;4984661;28;20041;-53
2021/08/05 10:22:47;;;;;;;24.80;12.73;;;;;;;;;;5004986;28;20120;-54
2021/08/05 10:25:16;;;;;;;18.42;10.05;;;;;;;;;;4998792;28;20062;-50
2021/08/05 10:27:43;;;;;;;19.20;11.77;;;;;;;;;;4983127;28;20050;-56
2021/08/05 10:30:11;;;;;;;19.30;10.73;;;;;;;;;;4981387;28;20049;-53
2021/08/05 10:32:38;;;;;;;30.40;10.75;;;;;;;;;;4982518;28;20079;-55
2021/08/05 10:35:05;;;;;;;23.00;13.95;;;;;;;;;;4982431;28;20043;-52
2021/08/05 10:37:33;;;;;;;19.13;12.00;;;;;;;;;;4980265;28;20054;-55
2021/08/05 10:40:00;;;;;;;21.38;11.82;;;;;;;;;;4998405;28;20047;-53
2021/08/05 10:42:26;;;;;;;21.67;11.48;;;;;;;;;;4998185;28;20042;-53
2021/08/05 10:44:54;;;;;;;24.67;12.15;;;;;;;;;;5001144;28;20042;-54
2021/08/05 10:47:21;;;;;;;18.02;11.57;;;;;;;;;;4995352;28;20050;-49
2021/08/05 10:49:49;;;;;;;19.00;11.75;;;;;;;;;;4998779;28;20057;-56
2021/08/05 10:52:36;;;;;;;13.55;7.80;;;;;;;;;;4978033;28;20057;-56
2021/08/05 10:55:05;;;;;;;14.17;9.27;;;;;;;;;;4983119;28;20070;-56
2021/08/05 10:57:31;;;;;;;18.77;10.10;;;;;;;;;;4979645;28;20042;-52
2021/08/05 10:59:59;;;;;;;17.90;8.90;;;;;;;;;;4982653;28;20043;-50
2021/08/05 11:02:45;;;;;;;14.50;9.97;;;;;;;;;;4979166;28;20051;-55
2021/08/05 11:05:11;;;;;;;13.07;7.57;;;;;;;;;;4981833;28;20047;-56
2021/08/05 11:07:38;;;;;;;15.13;8.48;;;;;;;;;;5006022;28;20049;-55
2021/08/05 11:10:22;;;;;;;17.42;9.38;;;;;;;;;;4996414;28;20042;-54
2021/08/05 11:12:50;;;;;;;15.63;10.20;;;;;;;;;;4970356;28;20035;-52
2021/08/05 11:15:37;;;;;;;18.53;10.57;;;;;;;;;;4983925;28;20039;-54
2021/08/05 11:18:30;;;;;;;19.85;8.38;;;;;;;;;;4998428;28;20136;-55
2021/08/05 11:21:15;;;;;;;17.33;8.95;;;;;;;;;;4961534;28;20039;-55
2021/08/05 11:23:42;;;;;;;17.65;9.55;;;;;;;;;;4983269;28;20057;-54
2021/08/05 11:26:11;;;;;;;13.88;7.47;;;;;;;;;;4985441;28;20049;-57
2021/08/05 11:28:37;;;;;;;;;;;;;;;;;;4994279;28;20045;-53
2021/08/05 11:31:04;;;;;;;14.05;8.73;;;;;;;;;;5004005;28;20004;-55
2021/08/05 11:34:07;;;;;;;17.30;9.50;;;;;;;;;;4991423;28;20042;-57
2021/08/05 11:36:36;;;;;;;17.15;9.90;;;;;;;;;;4986524;28;20053;-57
2021/08/05 11:39:13;;;;;;;14.15;7.63;;;;;;;;;;4991395;28;20049;-56
2021/08/05 11:41:45;;;;;;;9.93;6.43;;;;;;;;;;4987577;28;20039;-56
2021/08/05 11:44:22;;;;;;;15.60;6.88;;;;;;;;;;4995966;28;20054;-53
2021/08/05 11:47:08;;;;;;;11.52;7.60;;;;;;;;;;4984517;28;20039;-57
2021/08/05 11:49:36;;;;;;;14.18;7.65;;;;;;;;;;4992860;28;20030;-55
2021/08/05 11:52:07;;;;;;;10.33;6.67;;;;;;;;;;4987819;28;20050;-57
2021/08/05 11:54:34;;;;;;;14.65;8.15;;;;;;;;;;4989420;28;20046;-54
2021/08/05 11:57:02;;;;;;;15.43;8.82;;;;;;;;;;5005243;28;20046;-57
2021/08/05 11:59:29;;;;;;;;;;;;;;;;;;4995242;28;20046;-52
2021/08/05 12:02:08;;;;;;;18.27;8.68;;;;;;;;;;4985753;28;19942;-55
2021/08/05 12:04:35;;;;;;;14.40;9.18;;;;;;;;;;4988343;28;20050;-49
2021/08/05 12:07:21;;;;;;;14.15;8.35;;;;;;;;;;5020900;28;20132;-55
2021/08/05 12:10:02;;;;;;;14.98;8.60;;;;;;;;;;4990038;28;20035;-54
2021/08/05 12:12:30;;;;;;;11.90;7.07;;;;;;;;;;4964229;28;20046;-52
2021/08/05 12:14:57;;;;;;;13.02;7.63;;;;;;;;;;4968761;28;20046;-51
2021/08/05 12:17:38;;;;;;;14.05;8.07;;;;;;;;;;4984246;28;20045;-53
2021/08/05 12:20:06;;;;;;;15.38;10.07;;;;;;;;;;4984238;28;20058;-55
2021/08/05 12:22:35;;;;;;;13.32;8.63;;;;;;;;;;5010157;28;20045;-55
2021/08/05 12:25:05;;;;;;;12.45;7.93;;;;;;;;;;4996812;28;20069;-56
2021/08/05 12:27:33;;;;;;;18.00;9.90;;;;;;;;;;4981607;28;20043;-54
2021/08/05 12:30:00;;;;;;;14.85;9.18;;;;;;;;;;4995975;28;20093;-53
2021/08/05 12:32:26;;;;;;;20.80;12.32;;;;;;;;;;4982655;28;20054;-51
2021/08/05 12:34:54;;;;;;;18.60;9.95;;;;;;;;;;4982535;28;20058;-52
2021/08/05 12:37:21;;;;;;;15.93;9.70;;;;;;;;;;4980355;28;20062;-52
2021/08/05 12:39:47;;;;;;;19.67;12.00;;;;;;;;;;4984974;28;20053;-52
2021/08/05 12:42:15;;;;;;;17.23;9.50;;;;;;;;;;4981791;28;20046;-54
2021/08/05 12:44:44;;;;;;;16.83;9.82;;;;;;;;;;4999309;28;20041;-54
2021/08/05 12:47:10;;;;;;;16.08;9.48;;;;;;;;;;4997976;28;20058;-53
2021/08/05 12:49:38;;;;;;;15.75;10.48;;;;;;;;;;5003636;28;20081;-51
2021/08/05 12:52:06;;;;;;;20.03;11.50;;;;;;;;;;4980676;28;20069;-52
2021/08/05 12:54:48;;;;;;;18.25;10.15;;;;;;;;;;5004991;28;20058;-50
2021/08/05 12:57:15;;;;;;;21.38;11.45;;;;;;;;;;4984167;28;20092;-49
2021/08/05 12:59:45;;;;;;;15.05;9.23;;;;;;;;;;4998684;28;20050;-54
2021/08/05 13:02:12;;;;;;;18.80;11.30;;;;;;;;;;4995948;28;20042;-51
2021/08/05 13:04:39;;;;;;;20.65;11.80;;;;;;;;;;4985237;28;20097;-51
2021/08/05 13:07:06;;;;;;;21.85;14.30;;;;;;;;;;4980062;28;20046;-52
2021/08/05 13:09:33;;;;;;;22.08;14.52;;;;;;;;;;4985134;28;20050;-53
2021/08/05 13:12:01;;;;;;;19.43;12.90;;;;;;;;;;4980541;28;20033;-53
2021/08/05 13:14:28;;;;;;;24.17;14.48;;;;;;;;;;4985662;28;20035;-51
2021/08/05 13:17:03;;;;;;;23.25;14.55;;;;;;;;;;4996800;28;20047;-51
2021/08/05 13:19:30;;;;;;;21.20;14.15;;;;;;;;;;4981814;28;20046;-51
2021/08/05 13:21:58;;;;;;;20.98;13.82;;;;;;;;;;4981030;28;20121;-52
2021/08/05 13:24:25;;;;;;;18.47;12.30;;;;;;;;;;4983368;28;20050;-52
2021/08/05 13:26:53;;;;;;;16.20;11.38;;;;;;;;;;4984646;28;20042;-51
2021/08/05 13:29:51;;;;;;;15.25;10.52;;;;;;;;;;4999030;28;20058;-53
2021/08/05 13:32:17;;;;;;;;;;;;;;;;;;5000079;28;20046;-52
2021/08/05 13:34:59;;;;;;;13.27;8.68;;;;;;;;;;4997699;28;19945;-55
2021/08/05 13:37:26;;;;;;;14.40;10.15;;;;;;;;;;5000260;28;20041;-49
2021/08/05 13:39:53;;;;;;;13.60;8.87;;;;;;;;;;4981517;28;20046;-49
2021/08/05 13:42:20;;;;;;;16.73;11.07;;;;;;;;;;5020469;28;20094;-50
2021/08/05 13:44:47;;;;;;;15.52;9.85;;;;;;;;;;4982858;28;20121;-53
2021/08/05 13:47:14;;;;;;;14.68;9.13;;;;;;;;;;4983289;28;20035;-53
2021/08/05 13:49:40;;;;;;;11.00;6.72;;;;;;;;;;4993349;28;20042;-52
2021/08/05 13:52:09;;;;;;;11.13;6.22;;;;;;;;;;4981769;28;20058;-51
2021/08/05 13:54:38;;;;;;;14.23;7.70;;;;;;;;;;5006620;28;20034;-50
2021/08/05 13:57:04;;;;;;;9.85;6.25;;;;;;;;;;4964143;28;20047;-52
2021/08/05 13:59:31;;;;;;;11.15;6.82;;;;;;;;;;4986219;28;20128;-52
2021/08/05 14:01:58;;;;;;;8.88;5.80;;;;;;;;;;4981353;28;20039;-51
2021/08/05 14:04:26;;;;;;;11.52;6.38;;;;;;;;;;4978412;28;20047;-52
2021/08/05 14:06:53;;;;;;;12.07;7.90;;;;;;;;;;4979934;28;20050;-54
2021/08/05 14:09:21;;;;;;;14.80;8.63;;;;;;;;;;4970569;28;20046;-49
2021/08/05 14:11:47;;;;;;;15.32;8.50;;;;;;;;;;4962996;28;20045;-51
2021/08/05 14:14:14;;;;;;;16.77;9.73;;;;;;;;;;4980233;28;20034;-52
2021/08/05 14:16:44;;;;;;;14.02;9.85;;;;;;;;;;4981735;28;20050;-51
2021/08/05 14:19:10;;;;;;;16.73;10.20;;;;;;;;;;4978694;28;20034;-54
2021/08/05 14:21:37;;;;;;;17.88;11.30;;;;;;;;;;4983857;28;20035;-50
2021/08/05 14:24:05;;;;;;;16.25;9.90;;;;;;;;;;4984146;28;20046;-54
2021/08/05 14:26:33;;;;;;;15.93;10.20;;;;;;;;;;5013694;28;20083;-53
2021/08/05 14:29:00;;;;;;;16.90;9.75;;;;;;;;;;5000631;28;20053;-51
2021/08/05 14:31:26;;;;;;;13.23;8.95;;;;;;;;;;4998040;28;20066;-53
2021/08/05 14:33:53;;;;;;;11.57;7.85;;;;;;;;;;4983660;28;20050;-52
2021/08/05 14:36:20;;;;;;;15.45;8.63;;;;;;;;;;4978888;28;20046;-53
2021/08/05 14:38:47;;;;;;;13.85;8.68;;;;;;;;;;4983017;28;20062;-51
2021/08/05 14:41:13;;;;;;;12.43;6.95;;;;;;;;;;4978152;28;20129;-52
2021/08/05 14:43:43;;;;;;;13.50;8.45;;;;;;;;;;4999753;28;20097;-51